sensor_id;sensor_type;location;lat;lon;timestamp;temperature;humidity
3416;DHT22;1721;51.238;9.562;2023-09-19T00:00:26;17.70;97.80
3416;DHT22;1721;51.238;9.562;2023-09-19T00:02:56;17.70;97.80
3416;DHT22;1721;51.238;9.562;2023-09-19T00:05:24;17.70;98.20
3416;DHT22;1721;51.238;9.562;2023-09-19T00:07:51;17.70;98.10
3416;DHT22;1721;51.238;9.562;2023-09-19T00:10:23;17.60;98.40
3416;DHT22;1721;51.238;9.562;2023-09-19T00:12:50;17.70;98.30
3416;DHT22;1721;51.238;9.562;2023-09-19T00:15:22;17.70;98.30
3416;DHT22;1721;51.238;9.562;2023-09-19T00:17:48;17.60;98.40
3416;DHT22;1721;51.238;9.562;2023-09-19T00:20:15;17.70;98.30
3416;DHT22;1721;51.238;9.562;2023-09-19T00:22:43;17.80;98.10
3416;DHT22;1721;51.238;9.562;2023-09-19T00:25:10;17.80;98.30
3416;DHT22;1721;51.238;9.562;2023-09-19T00:27:38;17.60;98.50
3416;DHT22;1721;51.238;9.562;2023-09-19T00:30:11;17.60;98.30
3416;DHT22;1721;51.238;9.562;2023-09-19T00:32:45;17.60;98.50
3416;DHT22;1721;51.238;9.562;2023-09-19T00:35:13;17.60;98.70
3416;DHT22;1721;51.238;9.562;2023-09-19T00:37:40;17.60;98.90
3416;DHT22;1721;51.238;9.562;2023-09-19T00:40:07;17.60;98.70
3416;DHT22;1721;51.238;9.562;2023-09-19T00:42:40;17.70;98.90
3416;DHT22;1721;51.238;9.562;2023-09-19T00:45:07;17.70;98.70
3416;DHT22;1721;51.238;9.562;2023-09-19T00:47:36;17.70;98.80
3416;DHT22;1721;51.238;9.562;2023-09-19T00:50:04;17.70;98.90
3416;DHT22;1721;51.238;9.562;2023-09-19T00:52:33;17.40;99.20
3416;DHT22;1721;51.238;9.562;2023-09-19T00:55:01;17.40;99.10
3416;DHT22;1721;51.238;9.562;2023-09-19T00:57:27;17.40;99.30
3416;DHT22;1721;51.238;9.562;2023-09-19T00:59:54;17.40;99.20
3416;DHT22;1721;51.238;9.562;2023-09-19T01:02:20;17.40;99.20
3416;DHT22;1721;51.238;9.562;2023-09-19T01:04:46;17.30;99.10
3416;DHT22;1721;51.238;9.562;2023-09-19T01:07:12;17.40;99.50
3416;DHT22;1721;51.238;9.562;2023-09-19T01:09:40;17.40;99.30
3416;DHT22;1721;51.238;9.562;2023-09-19T01:12:07;17.40;99.10
3416;DHT22;1721;51.238;9.562;2023-09-19T01:17:22;17.40;99.10
3416;DHT22;1721;51.238;9.562;2023-09-19T01:20:12;17.20;99.30
3416;DHT22;1721;51.238;9.562;2023-09-19T01:28:20;17.20;99.70
3416;DHT22;1721;51.238;9.562;2023-09-19T01:30:51;17.20;99.60
3416;DHT22;1721;51.238;9.562;2023-09-19T01:33:19;17.10;99.60
3416;DHT22;1721;51.238;9.562;2023-09-19T01:35:45;17.10;99.80
3416;DHT22;1721;51.238;9.562;2023-09-19T01:38:11;17.30;99.50
3416;DHT22;1721;51.238;9.562;2023-09-19T01:40:41;17.30;99.00
3416;DHT22;1721;51.238;9.562;2023-09-19T01:51:02;17.10;98.60
3416;DHT22;1721;51.238;9.562;2023-09-19T01:54:01;17.10;98.50
3416;DHT22;1721;51.238;9.562;2023-09-19T01:56:34;17.10;98.30
3416;DHT22;1721;51.238;9.562;2023-09-19T01:59:08;17.10;98.40
3416;DHT22;1721;51.238;9.562;2023-09-19T02:01:37;17.00;98.10
3416;DHT22;1721;51.238;9.562;2023-09-19T02:04:04;17.00;98.40
3416;DHT22;1721;51.238;9.562;2023-09-19T02:06:30;17.00;98.30
3416;DHT22;1721;51.238;9.562;2023-09-19T02:08:56;17.10;98.40
3416;DHT22;1721;51.238;9.562;2023-09-19T02:11:22;16.90;97.80
3416;DHT22;1721;51.238;9.562;2023-09-19T02:13:54;16.80;97.90
3416;DHT22;1721;51.238;9.562;2023-09-19T02:16:20;16.80;98.20
3416;DHT22;1721;51.238;9.562;2023-09-19T02:18:50;16.90;98.20
3416;DHT22;1721;51.238;9.562;2023-09-19T02:21:16;16.80;98.20
3416;DHT22;1721;51.238;9.562;2023-09-19T02:23:43;16.90;98.00
3416;DHT22;1721;51.238;9.562;2023-09-19T02:26:10;16.90;98.50
3416;DHT22;1721;51.238;9.562;2023-09-19T02:28:38;16.70;98.50
3416;DHT22;1721;51.238;9.562;2023-09-19T02:31:04;16.70;98.30
3416;DHT22;1721;51.238;9.562;2023-09-19T02:33:31;16.70;97.90
3416;DHT22;1721;51.238;9.562;2023-09-19T02:35:58;16.60;97.80
3416;DHT22;1721;51.238;9.562;2023-09-19T02:38:25;16.70;97.70
3416;DHT22;1721;51.238;9.562;2023-09-19T02:40:51;16.70;97.50
3416;DHT22;1721;51.238;9.562;2023-09-19T02:43:17;16.70;97.40
3416;DHT22;1721;51.238;9.562;2023-09-19T02:45:45;16.70;97.30
3416;DHT22;1721;51.238;9.562;2023-09-19T02:48:11;16.70;97.20
3416;DHT22;1721;51.238;9.562;2023-09-19T02:50:38;16.60;97.10
3416;DHT22;1721;51.238;9.562;2023-09-19T02:53:05;16.60;96.80
3416;DHT22;1721;51.238;9.562;2023-09-19T02:55:31;16.60;96.80
3416;DHT22;1721;51.238;9.562;2023-09-19T02:57:57;16.60;96.70
3416;DHT22;1721;51.238;9.562;2023-09-19T03:00:23;16.60;96.50
3416;DHT22;1721;51.238;9.562;2023-09-19T03:02:50;16.60;96.60
3416;DHT22;1721;51.238;9.562;2023-09-19T03:05:16;16.60;96.70
3416;DHT22;1721;51.238;9.562;2023-09-19T03:07:41;16.60;96.60
3416;DHT22;1721;51.238;9.562;2023-09-19T03:10:09;16.50;96.60
3416;DHT22;1721;51.238;9.562;2023-09-19T03:12:35;16.50;96.90
3416;DHT22;1721;51.238;9.562;2023-09-19T03:15:01;16.60;96.70
3416;DHT22;1721;51.238;9.562;2023-09-19T03:17:26;16.60;96.50
3416;DHT22;1721;51.238;9.562;2023-09-19T03:19:52;16.50;96.40
3416;DHT22;1721;51.238;9.562;2023-09-19T03:22:19;16.40;96.60
3416;DHT22;1721;51.238;9.562;2023-09-19T03:24:44;16.30;96.70
3416;DHT22;1721;51.238;9.562;2023-09-19T03:27:12;16.30;96.70
3416;DHT22;1721;51.238;9.562;2023-09-19T03:29:41;16.20;96.50
3416;DHT22;1721;51.238;9.562;2023-09-19T03:32:07;16.20;96.60
3416;DHT22;1721;51.238;9.562;2023-09-19T03:34:36;16.20;96.40
3416;DHT22;1721;51.238;9.562;2023-09-19T03:37:03;16.20;96.30
3416;DHT22;1721;51.238;9.562;2023-09-19T03:39:29;16.20;96.30
3416;DHT22;1721;51.238;9.562;2023-09-19T03:41:54;16.30;96.30
3416;DHT22;1721;51.238;9.562;2023-09-19T03:44:20;16.30;96.10
3416;DHT22;1721;51.238;9.562;2023-09-19T03:46:45;16.30;96.10
3416;DHT22;1721;51.238;9.562;2023-09-19T03:49:11;16.40;96.30
3416;DHT22;1721;51.238;9.562;2023-09-19T03:51:36;16.30;96.20
3416;DHT22;1721;51.238;9.562;2023-09-19T03:54:03;16.30;96.20
3416;DHT22;1721;51.238;9.562;2023-09-19T03:56:29;16.30;96.20
3416;DHT22;1721;51.238;9.562;2023-09-19T03:58:55;16.30;96.00
3416;DHT22;1721;51.238;9.562;2023-09-19T04:01:20;16.30;96.00
3416;DHT22;1721;51.238;9.562;2023-09-19T04:03:46;16.20;95.80
3416;DHT22;1721;51.238;9.562;2023-09-19T04:06:16;16.30;95.90
3416;DHT22;1721;51.238;9.562;2023-09-19T04:08:42;16.20;95.80
3416;DHT22;1721;51.238;9.562;2023-09-19T04:11:08;16.20;95.60
3416;DHT22;1721;51.238;9.562;2023-09-19T04:13:34;16.10;95.80
3416;DHT22;1721;51.238;9.562;2023-09-19T04:16:01;16.20;95.60
3416;DHT22;1721;51.238;9.562;2023-09-19T04:18:29;16.20;95.40
3416;DHT22;1721;51.238;9.562;2023-09-19T04:20:56;16.10;95.60
3416;DHT22;1721;51.238;9.562;2023-09-19T04:23:22;16.20;95.50
3416;DHT22;1721;51.238;9.562;2023-09-19T04:25:47;16.20;95.50
3416;DHT22;1721;51.238;9.562;2023-09-19T04:28:14;16.30;95.70
3416;DHT22;1721;51.238;9.562;2023-09-19T04:30:40;16.30;95.50
3416;DHT22;1721;51.238;9.562;2023-09-19T04:33:06;16.20;95.60
3416;DHT22;1721;51.238;9.562;2023-09-19T04:35:34;16.30;95.40
3416;DHT22;1721;51.238;9.562;2023-09-19T04:38:00;16.30;95.40
3416;DHT22;1721;51.238;9.562;2023-09-19T04:40:26;16.20;95.40
3416;DHT22;1721;51.238;9.562;2023-09-19T04:42:57;16.30;95.60
3416;DHT22;1721;51.238;9.562;2023-09-19T04:45:23;16.50;95.40
3416;DHT22;1721;51.238;9.562;2023-09-19T04:47:48;16.60;95.00
3416;DHT22;1721;51.238;9.562;2023-09-19T04:50:14;16.50;94.80
3416;DHT22;1721;51.238;9.562;2023-09-19T04:52:41;16.40;94.90
3416;DHT22;1721;51.238;9.562;2023-09-19T04:55:14;16.40;95.00
3416;DHT22;1721;51.238;9.562;2023-09-19T04:57:47;16.30;95.10
3416;DHT22;1721;51.238;9.562;2023-09-19T05:00:14;16.30;94.70
3416;DHT22;1721;51.238;9.562;2023-09-19T05:02:41;16.30;95.20
3416;DHT22;1721;51.238;9.562;2023-09-19T05:05:10;16.30;94.90
3416;DHT22;1721;51.238;9.562;2023-09-19T05:07:38;16.40;94.70
3416;DHT22;1721;51.238;9.562;2023-09-19T05:10:05;16.40;94.70
3416;DHT22;1721;51.238;9.562;2023-09-19T05:12:33;16.40;94.80
3416;DHT22;1721;51.238;9.562;2023-09-19T05:14:59;16.50;94.70
3416;DHT22;1721;51.238;9.562;2023-09-19T05:17:25;16.30;94.60
3416;DHT22;1721;51.238;9.562;2023-09-19T05:19:51;16.30;94.80
3416;DHT22;1721;51.238;9.562;2023-09-19T05:22:16;16.20;94.60
3416;DHT22;1721;51.238;9.562;2023-09-19T05:24:44;16.20;94.50
3416;DHT22;1721;51.238;9.562;2023-09-19T05:27:14;16.30;94.70
3416;DHT22;1721;51.238;9.562;2023-09-19T05:29:44;16.30;94.30
3416;DHT22;1721;51.238;9.562;2023-09-19T05:32:12;16.30;94.60
3416;DHT22;1721;51.238;9.562;2023-09-19T05:34:38;16.30;94.50
3416;DHT22;1721;51.238;9.562;2023-09-19T05:37:04;16.40;94.50
3416;DHT22;1721;51.238;9.562;2023-09-19T05:39:33;16.20;94.40
3416;DHT22;1721;51.238;9.562;2023-09-19T05:41:58;16.30;94.60
3416;DHT22;1721;51.238;9.562;2023-09-19T05:44:25;16.40;94.30
3416;DHT22;1721;51.238;9.562;2023-09-19T05:46:51;16.40;94.20
3416;DHT22;1721;51.238;9.562;2023-09-19T05:49:17;16.40;94.20
3416;DHT22;1721;51.238;9.562;2023-09-19T05:51:43;16.50;94.20
3416;DHT22;1721;51.238;9.562;2023-09-19T05:54:09;16.50;94.00
3416;DHT22;1721;51.238;9.562;2023-09-19T05:56:36;16.50;93.80
3416;DHT22;1721;51.238;9.562;2023-09-19T05:59:02;16.40;93.90
3416;DHT22;1721;51.238;9.562;2023-09-19T06:01:29;16.40;93.90
3416;DHT22;1721;51.238;9.562;2023-09-19T06:03:56;16.30;93.80
3416;DHT22;1721;51.238;9.562;2023-09-19T06:06:21;16.50;93.70
3416;DHT22;1721;51.238;9.562;2023-09-19T06:08:49;16.60;93.60
3416;DHT22;1721;51.238;9.562;2023-09-19T06:11:15;16.70;93.70
3416;DHT22;1721;51.238;9.562;2023-09-19T06:13:41;16.70;93.30
3416;DHT22;1721;51.238;9.562;2023-09-19T06:16:06;16.60;93.20
3416;DHT22;1721;51.238;9.562;2023-09-19T06:18:32;16.60;93.20
3416;DHT22;1721;51.238;9.562;2023-09-19T06:20:59;16.60;93.00
3416;DHT22;1721;51.238;9.562;2023-09-19T06:23:29;16.50;92.70
3416;DHT22;1721;51.238;9.562;2023-09-19T06:25:54;16.60;92.90
3416;DHT22;1721;51.238;9.562;2023-09-19T06:28:20;16.70;92.50
3416;DHT22;1721;51.238;9.562;2023-09-19T06:30:50;16.80;92.60
3416;DHT22;1721;51.238;9.562;2023-09-19T06:33:15;16.70;92.30
3416;DHT22;1721;51.238;9.562;2023-09-19T06:35:42;16.60;92.30
3416;DHT22;1721;51.238;9.562;2023-09-19T06:38:10;16.70;92.30
3416;DHT22;1721;51.238;9.562;2023-09-19T06:40:44;16.70;91.90
3416;DHT22;1721;51.238;9.562;2023-09-19T06:43:10;16.70;92.10
3416;DHT22;1721;51.238;9.562;2023-09-19T06:45:36;16.80;92.10
3416;DHT22;1721;51.238;9.562;2023-09-19T06:48:01;16.90;92.10
3416;DHT22;1721;51.238;9.562;2023-09-19T06:50:28;17.10;92.10
3416;DHT22;1721;51.238;9.562;2023-09-19T06:52:57;17.10;91.90
3416;DHT22;1721;51.238;9.562;2023-09-19T06:55:25;17.20;92.10
3416;DHT22;1721;51.238;9.562;2023-09-19T06:57:53;17.40;92.10
3416;DHT22;1721;51.238;9.562;2023-09-19T07:00:22;17.40;92.00
3416;DHT22;1721;51.238;9.562;2023-09-19T07:02:57;17.50;91.90
3416;DHT22;1721;51.238;9.562;2023-09-19T07:05:26;17.50;91.50
3416;DHT22;1721;51.238;9.562;2023-09-19T07:07:53;17.60;92.10
3416;DHT22;1721;51.238;9.562;2023-09-19T07:10:20;17.40;91.10
3416;DHT22;1721;51.238;9.562;2023-09-19T07:12:54;17.70;91.50
3416;DHT22;1721;51.238;9.562;2023-09-19T07:15:22;17.50;90.90
3416;DHT22;1721;51.238;9.562;2023-09-19T07:17:48;17.50;90.80
3416;DHT22;1721;51.238;9.562;2023-09-19T07:20:15;17.50;90.80
3416;DHT22;1721;51.238;9.562;2023-09-19T07:22:41;17.70;90.90
3416;DHT22;1721;51.238;9.562;2023-09-19T07:25:07;17.80;90.80
3416;DHT22;1721;51.238;9.562;2023-09-19T07:27:33;17.90;90.40
3416;DHT22;1721;51.238;9.562;2023-09-19T07:30:05;17.90;90.10
3416;DHT22;1721;51.238;9.562;2023-09-19T07:32:31;17.90;90.30
3416;DHT22;1721;51.238;9.562;2023-09-19T07:34:56;18.00;90.30
3416;DHT22;1721;51.238;9.562;2023-09-19T07:37:22;18.00;89.70
3416;DHT22;1721;51.238;9.562;2023-09-19T07:39:51;18.00;89.90
3416;DHT22;1721;51.238;9.562;2023-09-19T07:42:16;17.90;89.70
3416;DHT22;1721;51.238;9.562;2023-09-19T07:44:44;17.70;90.10
3416;DHT22;1721;51.238;9.562;2023-09-19T07:47:14;18.00;90.70
3416;DHT22;1721;51.238;9.562;2023-09-19T07:49:39;18.00;90.60
3416;DHT22;1721;51.238;9.562;2023-09-19T07:52:06;18.00;90.80
3416;DHT22;1721;51.238;9.562;2023-09-19T07:54:32;18.00;90.20
3416;DHT22;1721;51.238;9.562;2023-09-19T07:57:01;18.20;90.60
3416;DHT22;1721;51.238;9.562;2023-09-19T07:59:27;18.30;90.20
3416;DHT22;1721;51.238;9.562;2023-09-19T08:01:53;18.40;90.60
3416;DHT22;1721;51.238;9.562;2023-09-19T08:04:20;18.40;89.50
3416;DHT22;1721;51.238;9.562;2023-09-19T08:06:45;18.40;89.00
3416;DHT22;1721;51.238;9.562;2023-09-19T08:09:11;18.50;90.00
3416;DHT22;1721;51.238;9.562;2023-09-19T08:11:38;18.70;89.30
3416;DHT22;1721;51.238;9.562;2023-09-19T08:14:04;18.70;88.50
3416;DHT22;1721;51.238;9.562;2023-09-19T08:16:35;18.40;89.60
3416;DHT22;1721;51.238;9.562;2023-09-19T08:19:00;18.50;88.60
3416;DHT22;1721;51.238;9.562;2023-09-19T08:21:26;18.50;88.20
3416;DHT22;1721;51.238;9.562;2023-09-19T08:23:54;18.40;88.50
3416;DHT22;1721;51.238;9.562;2023-09-19T08:26:20;18.30;88.50
3416;DHT22;1721;51.238;9.562;2023-09-19T08:28:46;18.50;88.70
3416;DHT22;1721;51.238;9.562;2023-09-19T08:31:13;18.60;89.00
3416;DHT22;1721;51.238;9.562;2023-09-19T08:33:39;18.80;88.50
3416;DHT22;1721;51.238;9.562;2023-09-19T08:36:07;18.90;87.60
3416;DHT22;1721;51.238;9.562;2023-09-19T08:38:35;19.10;88.90
3416;DHT22;1721;51.238;9.562;2023-09-19T08:41:05;19.20;87.80
3416;DHT22;1721;51.238;9.562;2023-09-19T08:43:31;19.00;87.20
3416;DHT22;1721;51.238;9.562;2023-09-19T08:46:11;19.20;87.10
3416;DHT22;1721;51.238;9.562;2023-09-19T08:48:45;19.20;86.20
3416;DHT22;1721;51.238;9.562;2023-09-19T08:51:26;19.20;86.20
3416;DHT22;1721;51.238;9.562;2023-09-19T08:54:07;19.20;86.30
3416;DHT22;1721;51.238;9.562;2023-09-19T08:56:33;19.30;87.00
3416;DHT22;1721;51.238;9.562;2023-09-19T08:59:06;19.30;85.90
3416;DHT22;1721;51.238;9.562;2023-09-19T09:01:38;19.40;87.50
3416;DHT22;1721;51.238;9.562;2023-09-19T09:04:08;19.30;85.70
3416;DHT22;1721;51.238;9.562;2023-09-19T09:06:34;19.10;85.90
3416;DHT22;1721;51.238;9.562;2023-09-19T09:09:01;19.30;86.50
3416;DHT22;1721;51.238;9.562;2023-09-19T09:11:28;19.60;87.00
3416;DHT22;1721;51.238;9.562;2023-09-19T09:13:54;19.60;85.00
3416;DHT22;1721;51.238;9.562;2023-09-19T09:16:20;19.60;83.20
3416;DHT22;1721;51.238;9.562;2023-09-19T09:18:46;19.60;84.20
3416;DHT22;1721;51.238;9.562;2023-09-19T09:21:12;19.80;84.30
3416;DHT22;1721;51.238;9.562;2023-09-19T09:23:39;19.70;83.30
3416;DHT22;1721;51.238;9.562;2023-09-19T09:26:04;19.50;84.40
3416;DHT22;1721;51.238;9.562;2023-09-19T09:28:32;19.70;84.10
3416;DHT22;1721;51.238;9.562;2023-09-19T09:30:59;19.40;84.10
3416;DHT22;1721;51.238;9.562;2023-09-19T09:33:25;19.30;84.60
3416;DHT22;1721;51.238;9.562;2023-09-19T09:35:56;19.40;84.70
3416;DHT22;1721;51.238;9.562;2023-09-19T09:38:25;19.50;84.40
3416;DHT22;1721;51.238;9.562;2023-09-19T09:40:58;19.50;84.10
3416;DHT22;1721;51.238;9.562;2023-09-19T09:43:32;19.50;83.60
3416;DHT22;1721;51.238;9.562;2023-09-19T09:46:09;19.70;83.80
3416;DHT22;1721;51.238;9.562;2023-09-19T09:48:55;19.80;83.50
3416;DHT22;1721;51.238;9.562;2023-09-19T09:51:40;19.80;83.00
3416;DHT22;1721;51.238;9.562;2023-09-19T09:54:18;19.80;83.60
3416;DHT22;1721;51.238;9.562;2023-09-19T09:57:12;19.60;82.60
3416;DHT22;1721;51.238;9.562;2023-09-19T09:59:51;19.60;83.10
3416;DHT22;1721;51.238;9.562;2023-09-19T10:02:40;19.70;84.50
3416;DHT22;1721;51.238;9.562;2023-09-19T10:05:17;19.90;84.00
3416;DHT22;1721;51.238;9.562;2023-09-19T10:07:49;19.90;82.60
3416;DHT22;1721;51.238;9.562;2023-09-19T10:12:55;19.70;82.40
3416;DHT22;1721;51.238;9.562;2023-09-19T10:15:31;19.80;83.30
3416;DHT22;1721;51.238;9.562;2023-09-19T10:17:59;20.00;84.10
3416;DHT22;1721;51.238;9.562;2023-09-19T10:20:26;20.00;82.90
3416;DHT22;1721;51.238;9.562;2023-09-19T10:22:56;20.30;84.10
3416;DHT22;1721;51.238;9.562;2023-09-19T10:25:27;20.60;83.70
3416;DHT22;1721;51.238;9.562;2023-09-19T10:28:00;20.60;81.20
3416;DHT22;1721;51.238;9.562;2023-09-19T10:30:31;20.60;81.80
3416;DHT22;1721;51.238;9.562;2023-09-19T10:33:03;20.70;82.10
3416;DHT22;1721;51.238;9.562;2023-09-19T10:35:32;20.60;81.20
3416;DHT22;1721;51.238;9.562;2023-09-19T10:38:00;20.80;81.90
3416;DHT22;1721;51.238;9.562;2023-09-19T10:40:29;20.80;81.10
3416;DHT22;1721;51.238;9.562;2023-09-19T10:43:03;20.90;80.90
3416;DHT22;1721;51.238;9.562;2023-09-19T10:45:31;21.00;81.40
3416;DHT22;1721;51.238;9.562;2023-09-19T10:47:58;21.10;80.80
3416;DHT22;1721;51.238;9.562;2023-09-19T10:50:24;21.20;80.70
3416;DHT22;1721;51.238;9.562;2023-09-19T10:52:53;20.80;78.60
3416;DHT22;1721;51.238;9.562;2023-09-19T10:55:25;20.80;80.30
3416;DHT22;1721;51.238;9.562;2023-09-19T10:57:53;20.90;80.70
3416;DHT22;1721;51.238;9.562;2023-09-19T11:00:19;20.70;80.00
3416;DHT22;1721;51.238;9.562;2023-09-19T11:03:20;20.70;79.40
3416;DHT22;1721;51.238;9.562;2023-09-19T11:06:06;20.80;80.80
3416;DHT22;1721;51.238;9.562;2023-09-19T11:08:56;20.70;81.30
3416;DHT22;1721;51.238;9.562;2023-09-19T11:11:44;20.70;80.20
3416;DHT22;1721;51.238;9.562;2023-09-19T11:14:15;20.80;80.90
3416;DHT22;1721;51.238;9.562;2023-09-19T11:30:50;20.80;80.20
3416;DHT22;1721;51.238;9.562;2023-09-19T11:36:04;20.80;81.30
3416;DHT22;1721;51.238;9.562;2023-09-19T11:49:19;20.70;79.80
3416;DHT22;1721;51.238;9.562;2023-09-19T11:51:46;20.60;80.10
3416;DHT22;1721;51.238;9.562;2023-09-19T11:54:15;20.70;80.70
3416;DHT22;1721;51.238;9.562;2023-09-19T11:56:45;21.00;78.20
3416;DHT22;1721;51.238;9.562;2023-09-19T11:59:20;21.00;76.80
3416;DHT22;1721;51.238;9.562;2023-09-19T12:01:53;21.10;77.80
3416;DHT22;1721;51.238;9.562;2023-09-19T12:04:44;21.00;78.60
3416;DHT22;1721;51.238;9.562;2023-09-19T12:07:15;21.10;78.80
3416;DHT22;1721;51.238;9.562;2023-09-19T12:09:47;20.90;79.30
3416;DHT22;1721;51.238;9.562;2023-09-19T12:12:25;20.80;79.80
3416;DHT22;1721;51.238;9.562;2023-09-19T12:14:54;20.80;79.00
3416;DHT22;1721;51.238;9.562;2023-09-19T12:17:20;20.70;78.20
3416;DHT22;1721;51.238;9.562;2023-09-19T12:19:52;20.70;78.80
3416;DHT22;1721;51.238;9.562;2023-09-19T12:22:17;20.70;79.10
3416;DHT22;1721;51.238;9.562;2023-09-19T12:24:45;20.60;79.60
3416;DHT22;1721;51.238;9.562;2023-09-19T12:27:12;20.60;79.50
3416;DHT22;1721;51.238;9.562;2023-09-19T12:29:44;20.60;79.40
3416;DHT22;1721;51.238;9.562;2023-09-19T12:32:10;20.20;78.80
3416;DHT22;1721;51.238;9.562;2023-09-19T12:34:37;20.20;77.90
3416;DHT22;1721;51.238;9.562;2023-09-19T12:39:38;20.10;78.90
3416;DHT22;1721;51.238;9.562;2023-09-19T12:42:10;20.30;78.80
3416;DHT22;1721;51.238;9.562;2023-09-19T12:44:37;20.30;77.70
3416;DHT22;1721;51.238;9.562;2023-09-19T12:47:12;20.30;79.00
3416;DHT22;1721;51.238;9.562;2023-09-19T12:52:38;20.60;79.10
3416;DHT22;1721;51.238;9.562;2023-09-19T12:55:04;20.70;78.20
3416;DHT22;1721;51.238;9.562;2023-09-19T12:57:32;20.60;77.00
3416;DHT22;1721;51.238;9.562;2023-09-19T13:00:04;20.60;78.20
3416;DHT22;1721;51.238;9.562;2023-09-19T13:02:36;20.80;77.50
3416;DHT22;1721;51.238;9.562;2023-09-19T13:05:03;20.60;77.00
3416;DHT22;1721;51.238;9.562;2023-09-19T13:07:45;20.60;78.60
3416;DHT22;1721;51.238;9.562;2023-09-19T13:10:18;20.50;78.50
3416;DHT22;1721;51.238;9.562;2023-09-19T13:12:49;20.50;77.60
3416;DHT22;1721;51.238;9.562;2023-09-19T13:15:15;20.50;77.90
3416;DHT22;1721;51.238;9.562;2023-09-19T13:17:51;20.50;77.70
3416;DHT22;1721;51.238;9.562;2023-09-19T13:20:25;20.30;77.60
3416;DHT22;1721;51.238;9.562;2023-09-19T13:22:53;20.00;78.70
3416;DHT22;1721;51.238;9.562;2023-09-19T13:25:21;19.90;79.50
3416;DHT22;1721;51.238;9.562;2023-09-19T13:27:54;20.10;79.40
3416;DHT22;1721;51.238;9.562;2023-09-19T13:30:25;20.10;80.10
3416;DHT22;1721;51.238;9.562;2023-09-19T13:32:52;20.30;80.00
3416;DHT22;1721;51.238;9.562;2023-09-19T13:35:19;20.50;80.10
3416;DHT22;1721;51.238;9.562;2023-09-19T13:37:46;20.30;78.40
3416;DHT22;1721;51.238;9.562;2023-09-19T13:40:16;20.20;79.10
3416;DHT22;1721;51.238;9.562;2023-09-19T13:42:43;20.10;78.10
3416;DHT22;1721;51.238;9.562;2023-09-19T13:45:09;19.90;79.20
3416;DHT22;1721;51.238;9.562;2023-09-19T13:47:41;20.00;79.70
3416;DHT22;1721;51.238;9.562;2023-09-19T13:50:07;20.00;78.40
3416;DHT22;1721;51.238;9.562;2023-09-19T13:52:33;19.90;79.00
3416;DHT22;1721;51.238;9.562;2023-09-19T13:54:59;19.80;78.30
3416;DHT22;1721;51.238;9.562;2023-09-19T13:57:26;19.80;78.50
3416;DHT22;1721;51.238;9.562;2023-09-19T13:59:52;19.70;79.20
3416;DHT22;1721;51.238;9.562;2023-09-19T14:02:23;19.60;78.30
3416;DHT22;1721;51.238;9.562;2023-09-19T14:04:52;19.50;78.00
3416;DHT22;1721;51.238;9.562;2023-09-19T14:07:19;19.40;78.70
3416;DHT22;1721;51.238;9.562;2023-09-19T14:09:47;19.20;79.10
3416;DHT22;1721;51.238;9.562;2023-09-19T14:12:13;19.20;80.40
3416;DHT22;1721;51.238;9.562;2023-09-19T14:14:39;19.20;79.60
3416;DHT22;1721;51.238;9.562;2023-09-19T14:17:05;19.20;79.00
3416;DHT22;1721;51.238;9.562;2023-09-19T14:19:32;19.20;78.80
3416;DHT22;1721;51.238;9.562;2023-09-19T14:21:58;19.30;78.90
3416;DHT22;1721;51.238;9.562;2023-09-19T14:24:24;19.20;79.30
3416;DHT22;1721;51.238;9.562;2023-09-19T14:26:52;19.30;79.00
3416;DHT22;1721;51.238;9.562;2023-09-19T14:29:18;19.30;78.30
3416;DHT22;1721;51.238;9.562;2023-09-19T14:31:45;19.40;77.50
3416;DHT22;1721;51.238;9.562;2023-09-19T14:34:10;19.20;76.50
3416;DHT22;1721;51.238;9.562;2023-09-19T14:36:36;19.30;77.50
3416;DHT22;1721;51.238;9.562;2023-09-19T14:39:04;19.20;77.80
3416;DHT22;1721;51.238;9.562;2023-09-19T14:41:30;19.00;78.10
3416;DHT22;1721;51.238;9.562;2023-09-19T14:43:56;19.10;78.40
3416;DHT22;1721;51.238;9.562;2023-09-19T14:46:22;18.90;78.60
3416;DHT22;1721;51.238;9.562;2023-09-19T14:48:53;18.80;79.10
3416;DHT22;1721;51.238;9.562;2023-09-19T14:51:18;18.90;78.90
3416;DHT22;1721;51.238;9.562;2023-09-19T14:53:45;19.00;78.70
3416;DHT22;1721;51.238;9.562;2023-09-19T14:56:11;19.20;77.80
3416;DHT22;1721;51.238;9.562;2023-09-19T14:58:38;19.10;79.00
3416;DHT22;1721;51.238;9.562;2023-09-19T15:01:07;19.20;78.10
3416;DHT22;1721;51.238;9.562;2023-09-19T15:03:34;19.30;77.70
3416;DHT22;1721;51.238;9.562;2023-09-19T15:06:08;19.40;77.20
3416;DHT22;1721;51.238;9.562;2023-09-19T15:08:41;19.30;77.40
3416;DHT22;1721;51.238;9.562;2023-09-19T15:11:11;19.30;77.30
3416;DHT22;1721;51.238;9.562;2023-09-19T15:13:37;19.20;77.40
3416;DHT22;1721;51.238;9.562;2023-09-19T15:16:07;19.20;77.30
3416;DHT22;1721;51.238;9.562;2023-09-19T15:18:40;19.20;77.00
3416;DHT22;1721;51.238;9.562;2023-09-19T15:21:08;19.30;76.10
3416;DHT22;1721;51.238;9.562;2023-09-19T15:23:36;19.30;78.00
3416;DHT22;1721;51.238;9.562;2023-09-19T15:26:07;19.30;76.30
3416;DHT22;1721;51.238;9.562;2023-09-19T15:28:35;19.30;75.60
3416;DHT22;1721;51.238;9.562;2023-09-19T15:31:02;19.40;77.10
3416;DHT22;1721;51.238;9.562;2023-09-19T15:33:28;19.40;76.90
3416;DHT22;1721;51.238;9.562;2023-09-19T15:36:01;19.40;75.60
3416;DHT22;1721;51.238;9.562;2023-09-19T15:38:29;19.40;75.70
3416;DHT22;1721;51.238;9.562;2023-09-19T15:40:55;19.30;74.90
3416;DHT22;1721;51.238;9.562;2023-09-19T15:43:21;19.30;75.20
3416;DHT22;1721;51.238;9.562;2023-09-19T15:45:47;19.20;75.00
3416;DHT22;1721;51.238;9.562;2023-09-19T15:48:13;19.10;75.40
3416;DHT22;1721;51.238;9.562;2023-09-19T15:50:39;19.30;75.90
3416;DHT22;1721;51.238;9.562;2023-09-19T15:53:07;19.00;75.20
3416;DHT22;1721;51.238;9.562;2023-09-19T15:55:38;19.10;76.00
3416;DHT22;1721;51.238;9.562;2023-09-19T15:58:05;19.10;76.20
3416;DHT22;1721;51.238;9.562;2023-09-19T16:00:32;19.10;76.70
3416;DHT22;1721;51.238;9.562;2023-09-19T16:03:02;19.00;76.60
3416;DHT22;1721;51.238;9.562;2023-09-19T16:05:28;19.10;76.10
3416;DHT22;1721;51.238;9.562;2023-09-19T16:07:55;19.10;76.40
3416;DHT22;1721;51.238;9.562;2023-09-19T16:10:20;19.20;76.70
3416;DHT22;1721;51.238;9.562;2023-09-19T16:12:48;19.20;76.80
3416;DHT22;1721;51.238;9.562;2023-09-19T16:15:15;19.10;77.40
3416;DHT22;1721;51.238;9.562;2023-09-19T16:17:43;19.00;76.30
3416;DHT22;1721;51.238;9.562;2023-09-19T16:20:08;19.00;76.60
3416;DHT22;1721;51.238;9.562;2023-09-19T16:22:38;18.90;76.90
3416;DHT22;1721;51.238;9.562;2023-09-19T16:25:05;19.00;76.90
3416;DHT22;1721;51.238;9.562;2023-09-19T16:27:30;18.90;77.20
3416;DHT22;1721;51.238;9.562;2023-09-19T16:29:57;18.80;76.70
3416;DHT22;1721;51.238;9.562;2023-09-19T16:32:23;18.80;76.70
3416;DHT22;1721;51.238;9.562;2023-09-19T16:34:48;18.80;76.70
3416;DHT22;1721;51.238;9.562;2023-09-19T16:37:14;18.80;77.80
3416;DHT22;1721;51.238;9.562;2023-09-19T16:39:41;18.90;77.60
3416;DHT22;1721;51.238;9.562;2023-09-19T16:42:09;18.90;77.60
3416;DHT22;1721;51.238;9.562;2023-09-19T16:44:37;19.00;77.90
3416;DHT22;1721;51.238;9.562;2023-09-19T16:47:03;18.80;78.40
3416;DHT22;1721;51.238;9.562;2023-09-19T16:49:30;18.80;77.80
3416;DHT22;1721;51.238;9.562;2023-09-19T16:51:55;18.70;78.60
3416;DHT22;1721;51.238;9.562;2023-09-19T16:54:21;18.60;79.70
3416;DHT22;1721;51.238;9.562;2023-09-19T16:56:48;18.50;78.70
3416;DHT22;1721;51.238;9.562;2023-09-19T16:59:14;18.50;79.00
3416;DHT22;1721;51.238;9.562;2023-09-19T17:01:41;18.50;79.30